Time;durP1;ratioP1;P1;durP2;ratioP2;P2;SDS_P1;SDS_P2;PMS_P1;PMS_P2;Temp;Humidity;BMP_temperature;BMP_pressure;BME280_temperature;BME280_humidity;BME280_pressure;Samples;Min_cycle;Max_cycle;Signal;HPM_P1;HPM_P2
2022/07/11 00:01:09;;;;;;;14.40;5.97;;;;;;;16.65;73.05;102325.47;4738663;30;20123;-90
2022/07/11 00:03:34;;;;;;;10.25;5.05;;;;;;;16.76;74.26;102345.72;4753708;30;20400;-90
2022/07/11 00:06:01;;;;;;;11.43;5.60;;;;;;;16.59;76.05;102330.94;4737891;30;20086;-90
2022/07/11 00:08:26;;;;;;;13.00;5.70;;;;;;;16.54;74.87;102331.97;4736584;30;20031;-90
2022/07/11 00:10:53;;;;;;;11.68;5.78;;;;;;;16.58;74.42;102343.44;4733672;30;20043;-90
2022/07/11 00:13:19;;;;;;;17.08;5.90;;;;;;;16.56;74.69;102323.88;4738635;30;20020;-90
2022/07/11 00:15:44;;;;;;;15.70;6.03;;;;;;;16.44;76.57;102319.69;4738930;30;20039;-90
2022/07/11 00:18:31;;;;;;;16.40;6.63;;;;;;;16.45;77.53;102331.28;4735207;30;20391;-90
2022/07/11 00:20:57;;;;;;;16.40;6.63;;;;;;;16.36;76.19;102320.78;4735744;30;20388;-90
2022/07/11 00:23:22;;;;;;;13.73;6.13;;;;;;;16.45;76.11;102342.84;4752294;30;20027;-91
2022/07/11 00:25:48;;;;;;;11.35;5.82;;;;;;;16.37;76.07;102335.91;4753232;30;20044;-90
2022/07/11 00:28:14;;;;;;;7.45;5.53;;;;;;;16.30;76.47;102320.00;4739070;30;20093;-90
2022/07/11 00:30:40;;;;;;;10.32;6.00;;;;;;;16.41;76.57;102329.59;4739011;30;20441;-90
2022/07/11 00:33:05;;;;;;;11.43;5.68;;;;;;;16.23;76.83;102309.50;4753496;30;20039;-90
2022/07/11 00:35:31;;;;;;;10.15;5.93;;;;;;;16.25;77.75;102321.91;4738645;30;20036;-90
2022/07/11 00:37:57;;;;;;;9.82;5.47;;;;;;;16.23;75.72;102322.88;4738624;30;20047;-90
2022/07/11 00:40:34;;;;;;;10.85;5.88;;;;;;;16.11;77.27;102321.31;4740370;30;20457;-89
2022/07/11 00:43:02;;;;;;;11.90;5.95;;;;;;;16.16;76.01;102318.56;4772389;30;20110;-90
2022/07/11 00:45:28;;;;;;;11.68;5.93;;;;;;;16.21;76.26;102317.53;4756225;30;20063;-90
2022/07/11 00:47:55;;;;;;;11.85;6.35;;;;;;;16.21;77.55;102320.22;4738566;30;20094;-90
2022/07/11 00:50:21;;;;;;;11.15;5.85;;;;;;;16.24;76.79;102329.94;4750427;30;20040;-90
2022/07/11 00:52:50;;;;;;;10.40;5.63;;;;;;;16.11;76.43;102310.63;4756131;30;20535;-89
2022/07/11 00:55:16;;;;;;;11.63;5.60;;;;;;;16.12;76.99;102310.63;4742908;30;20082;-89
2022/07/11 00:57:42;;;;;;;11.73;6.32;;;;;;;16.05;78.62;102306.31;4760150;30;20032;-89
2022/07/11 01:00:09;;;;;;;14.23;6.20;;;;;;;16.01;78.26;102309.06;4763022;30;20038;-90
2022/07/11 01:02:34;;;;;;;11.50;6.25;;;;;;;16.10;77.73;102322.25;4743834;30;20055;-89
2022/07/11 01:05:03;;;;;;;15.57;6.65;;;;;;;15.98;78.02;102298.47;4755913;30;20031;-89
2022/07/11 01:07:44;;;;;;;12.57;6.28;;;;;;;16.03;79.03;102307.25;4757364;30;20043;-89
2022/07/11 01:10:09;;;;;;;13.18;6.53;;;;;;;15.96;78.52;102298.47;4756275;30;20047;-89
2022/07/11 01:12:35;;;;;;;14.90;6.28;;;;;;;16.01;78.39;102307.28;4755870;30;20032;-90
2022/07/11 01:15:07;;;;;;;16.02;7.13;;;;;;;15.99;78.60;102313.56;4756030;30;20097;-90
2022/07/11 01:17:54;;;;;;;10.98;7.20;;;;;;;15.90;79.07;102301.28;4743058;30;20048;-90
2022/07/11 01:20:20;;;;;;;13.25;6.82;;;;;;;15.89;78.26;102305.75;4740821;30;20447;-89
2022/07/11 01:22:54;;;;;;;12.07;6.85;;;;;;;15.88;78.83;102304.00;4755746;30;20109;-89
2022/07/11 01:25:30;;;;;;;14.73;7.80;;;;;;;15.90;79.72;102312.84;4744615;30;20140;-90
2022/07/11 01:28:00;;;;;;;14.23;6.88;;;;;;;15.75;79.60;102280.22;4755262;30;20044;-89
2022/07/11 01:30:27;;;;;;;16.13;7.07;;;;;;;15.83;79.93;102310.34;4741217;30;20031;-90
2022/07/11 01:32:56;;;;;;;10.75;6.53;;;;;;;15.73;80.35;102292.75;4740995;30;20032;-89
2022/07/11 01:35:25;;;;;;;10.35;6.20;;;;;;;15.82;80.21;102308.56;4740740;30;20404;-89
2022/07/11 01:37:50;;;;;;;13.25;6.65;;;;;;;15.83;79.31;102307.69;4755575;30;20031;-89
2022/07/11 01:40:16;;;;;;;17.05;6.82;;;;;;;15.77;80.54;102299.78;4740760;30;20350;-89
2022/07/11 01:42:43;;;;;;;15.20;7.28;;;;;;;15.88;79.59;102308.47;4756194;30;20040;-89
2022/07/11 01:45:15;;;;;;;10.73;6.60;;;;;;;15.83;79.79;102291.66;4741623;30;20070;-89
2022/07/11 01:47:40;;;;;;;13.20;7.30;;;;;;;15.88;80.12;102304.00;4756379;30;20354;-89
2022/07/11 01:50:06;;;;;;;18.40;7.97;;;;;;;15.92;81.92;102315.47;4755970;30;20035;-89
2022/07/11 01:52:33;;;;;;;14.13;7.70;;;;;;;15.95;80.81;102314.53;4754558;30;20036;-90
2022/07/11 01:54:58;;;;;;;14.27;7.80;;;;;;;15.89;81.37;102310.19;4755236;30;20084;-90
2022/07/11 01:57:24;;;;;;;12.43;7.95;;;;;;;15.85;81.24;102304.06;4738748;30;20039;-90
2022/07/11 01:59:50;;;;;;;16.65;7.50;;;;;;;15.88;81.49;102308.47;4739840;30;20119;-89
2022/07/11 02:02:16;;;;;;;13.63;7.95;;;;;;;15.97;80.70;102326.94;4740274;30;20035;-90
2022/07/11 02:04:41;;;;;;;17.90;6.85;;;;;;;15.87;80.79;102307.59;4744391;30;20071;-90
2022/07/11 02:07:07;;;;;;;12.55;7.32;;;;;;;15.91;81.92;102311.94;4738997;30;20473;-90
2022/07/11 02:09:33;;;;;;;16.00;7.40;;;;;;;15.88;82.06;102312.00;4755069;30;20040;-89
2022/07/11 02:11:59;;;;;;;13.57;7.13;;;;;;;15.93;81.73;102311.03;4740367;30;20030;-90
2022/07/11 02:14:24;;;;;;;17.50;7.90;;;;;;;15.87;81.77;102310.25;4728634;30;20500;-90
2022/07/11 02:16:50;;;;;;;17.88;7.80;;;;;;;15.94;81.00;102313.66;4739805;30;20412;-88
2022/07/11 02:19:16;;;;;;;15.05;7.13;;;;;;;15.97;82.67;102312.72;4755243;30;20043;-89
2022/07/11 02:21:41;;;;;;;13.95;6.30;;;;;;;15.87;82.31;102296.91;4740040;30;20051;-90
2022/07/11 02:24:08;;;;;;;16.27;7.43;;;;;;;16.03;82.31;102316.16;4739992;30;20048;-90
2022/07/11 02:26:35;;;;;;;16.10;7.80;;;;;;;15.94;82.09;102294.97;4754829;30;20020;-90
2022/07/11 02:29:00;;;;;;;16.40;7.72;;;;;;;15.99;81.02;102301.09;4739719;30;20039;-90
2022/07/11 02:31:26;;;;;;;14.65;7.35;;;;;;;16.02;80.47;102303.72;4754860;30;20089;-90
2022/07/11 02:33:52;;;;;;;17.02;7.82;;;;;;;16.10;81.37;102315.09;4739920;30;20039;-88
2022/07/11 02:36:18;;;;;;;13.88;7.07;;;;;;;16.05;80.64;102305.44;4739823;30;20464;-89
2022/07/11 02:38:43;;;;;;;13.70;7.30;;;;;;;16.02;80.53;102293.03;4754383;30;20113;-89
2022/07/11 02:41:12;;;;;;;15.35;7.70;;;;;;;16.06;81.77;102299.16;4740250;30;20583;-90
2022/07/11 02:43:37;;;;;;;13.50;7.55;;;;;;;16.06;81.90;102302.72;4769972;30;20451;-90
2022/07/11 02:46:03;;;;;;;17.60;8.00;;;;;;;15.95;81.20;102294.06;4754233;30;20034;-90
2022/07/11 02:48:32;;;;;;;11.80;6.80;;;;;;;15.96;81.41;102298.47;4754129;30;20085;-90
2022/07/11 02:50:57;;;;;;;13.07;7.60;;;;;;;16.06;80.99;102310.72;4754003;30;20035;-90
2022/07/11 02:53:24;;;;;;;16.20;7.18;;;;;;;16.05;80.99;102302.75;4739371;30;20047;-90
2022/07/11 02:55:49;;;;;;;14.80;7.97;;;;;;;16.01;82.63;102304.59;4737006;30;20051;-89
2022/07/11 02:58:15;;;;;;;15.20;7.85;;;;;;;15.88;81.77;102301.31;4732458;30;20495;-89
2022/07/11 03:00:43;;;;;;;11.52;7.22;;;;;;;15.90;82.84;102311.97;4739544;30;20042;-89
2022/07/11 03:03:09;;;;;;;16.17;7.57;;;;;;;15.85;82.65;102293.38;4753808;30;20570;-90
2022/07/11 03:05:34;;;;;;;15.52;6.95;;;;;;;15.85;82.78;102296.03;4754251;30;20077;-90
2022/07/11 03:08:00;;;;;;;17.40;7.57;;;;;;;15.90;82.90;102304.84;4754110;30;20738;-89
2022/07/11 03:10:26;;;;;;;14.32;7.38;;;;;;;15.89;83.40;102308.41;4753222;30;20082;-90
2022/07/11 03:12:51;;;;;;;12.77;7.43;;;;;;;15.91;82.13;102303.91;4753260;30;20043;-90
2022/07/11 03:15:21;;;;;;;13.73;7.50;;;;;;;15.96;82.31;102305.63;4738826;30;20085;-90
2022/07/11 03:17:47;;;;;;;14.73;7.57;;;;;;;16.02;82.01;102314.41;4738587;30;20051;-89
2022/07/11 03:20:15;;;;;;;17.80;8.30;;;;;;;16.02;82.44;102309.06;4739391;30;20101;-90
2022/07/11 03:22:41;;;;;;;15.13;7.75;;;;;;;15.98;82.14;102302.00;4739289;30;20052;-90
2022/07/11 03:25:09;;;;;;;14.07;7.38;;;;;;;16.05;82.03;102319.66;4739005;30;20480;-91
2022/07/11 03:27:37;;;;;;;13.48;7.47;;;;;;;16.01;82.27;102309.94;4753893;30;20522;-90
2022/07/11 03:30:03;;;;;;;18.40;7.57;;;;;;;16.02;83.10;102316.16;4754038;30;20131;-90
2022/07/11 03:32:29;;;;;;;14.95;7.18;;;;;;;15.98;82.50;102311.81;4754145;30;20545;-90
2022/07/11 03:37:39;;;;;;;19.90;7.35;;;;;;;15.96;82.94;102317.19;4769234;30;20085;-89
2022/07/11 03:40:05;;;;;;;16.33;8.00;;;;;;;15.94;82.53;102316.34;4739390;30;20028;-90
2022/07/11 03:42:31;;;;;;;14.05;7.43;;;;;;;16.01;83.52;102317.09;4738774;30;20039;-89
2022/07/11 03:44:56;;;;;;;14.00;7.00;;;;;;;16.01;83.07;102325.09;4769973;30;20098;-89
2022/07/11 03:47:22;;;;;;;13.65;7.03;;;;;;;15.99;83.91;102319.78;4739409;30;20028;-90
2022/07/11 03:49:48;;;;;;;13.40;6.95;;;;;;;15.92;83.42;102302.13;4739234;30;20520;-90
2022/07/11 03:52:19;;;;;;;15.27;7.82;;;;;;;15.98;82.99;102310.03;4754283;30;20469;-90
2022/07/11 03:54:45;;;;;;;11.65;7.05;;;;;;;15.95;82.92;102298.50;4750535;30;20044;-90
2022/07/11 03:57:10;;;;;;;12.35;7.18;;;;;;;16.01;82.97;102309.06;4738737;30;20020;-90
2022/07/11 03:59:38;;;;;;;14.68;7.35;;;;;;;16.02;83.20;102306.38;4753742;30;20486;-90
2022/07/11 04:02:04;;;;;;;15.75;7.22;;;;;;;16.10;83.40;102325.78;4753589;30;20027;-91
2022/07/11 04:04:30;;;;;;;13.68;6.95;;;;;;;16.03;83.69;102308.13;4739234;30;20043;-92
2022/07/11 04:06:55;;;;;;;15.25;6.88;;;;;;;16.02;83.16;102302.81;4737972;30;20055;-94
2022/07/11 04:09:21;;;;;;;13.15;6.80;;;;;;;16.09;83.64;102310.66;4753593;30;20028;-92
2022/07/11 04:11:47;;;;;;;12.55;6.60;;;;;;;16.12;83.63;102304.38;4739542;30;20035;-92
2022/07/11 04:14:12;;;;;;;16.00;6.78;;;;;;;16.11;83.88;102314.19;4739321;30;20044;-91
2022/07/11 04:16:40;;;;;;;18.45;6.72;;;;;;;16.11;83.78;102319.53;4757408;30;20066;-93
2022/07/11 04:19:06;;;;;;;15.77;6.35;;;;;;;16.12;84.23;102317.72;4742820;30;20148;-93
2022/07/11 04:21:31;;;;;;;12.32;5.97;;;;;;;16.13;83.88;102315.03;4741692;30;20144;-93
2022/07/11 04:23:59;;;;;;;13.35;5.65;;;;;;;16.08;83.85;102305.38;4757506;30;20507;-91
2022/07/11 04:26:27;;;;;;;12.57;6.38;;;;;;;16.09;83.55;102307.97;4742603;30;20035;-92
2022/07/11 04:28:55;;;;;;;12.40;5.70;;;;;;;16.19;82.76;102316.69;4757123;30;20038;-93
2022/07/11 04:31:21;;;;;;;13.98;6.22;;;;;;;16.17;84.51;102321.22;4742592;30;20134;-92
2022/07/11 04:33:51;;;;;;;11.77;5.90;;;;;;;16.14;83.58;102323.91;4752265;30;20066;-93
2022/07/11 04:36:17;;;;;;;14.35;6.82;;;;;;;16.07;84.75;102304.50;4742375;30;20055;-92
2022/07/11 04:38:47;;;;;;;12.50;6.00;;;;;;;16.17;85.09;102317.63;4742355;30;20032;-91
2022/07/11 04:41:13;;;;;;;14.13;6.47;;;;;;;16.17;84.74;102323.88;4757656;30;20063;-91
2022/07/11 04:43:38;;;;;;;12.05;5.65;;;;;;;16.18;84.99;102322.94;4739613;30;20063;-93
2022/07/11 04:46:07;;;;;;;11.10;5.75;;;;;;;16.25;85.15;102332.59;4743151;30;20040;-92
2022/07/11 04:48:32;;;;;;;14.07;5.47;;;;;;;16.26;84.64;102337.03;4757051;30;20066;-93
2022/07/11 04:50:58;;;;;;;12.32;5.90;;;;;;;16.23;84.34;102320.19;4763818;30;20161;-93
2022/07/11 04:53:29;;;;;;;12.82;5.47;;;;;;;16.32;85.35;102328.88;4758082;30;20075;-91
2022/07/11 04:55:54;;;;;;;14.30;5.55;;;;;;;16.34;84.99;102332.41;4751950;30;20040;-93
2022/07/11 04:58:23;;;;;;;11.73;5.15;;;;;;;16.36;84.91;102335.03;4761592;30;20031;-92
2022/07/11 05:00:49;;;;;;;9.40;4.85;;;;;;;16.37;84.13;102336.81;4743633;30;20040;-93
2022/07/11 05:03:18;;;;;;;13.95;5.20;;;;;;;16.38;84.34;102335.88;4745903;30;20028;-94
2022/07/11 05:05:44;;;;;;;12.82;5.10;;;;;;;16.34;83.96;102324.38;4757634;30;20036;-90
2022/07/11 05:08:10;;;;;;;9.27;4.88;;;;;;;16.43;84.36;102342.00;4742106;30;20089;-92
2022/07/11 05:10:44;;;;;;;14.50;4.82;;;;;;;16.47;84.00;102340.16;4756423;30;20073;-92
2022/07/11 05:13:10;;;;;;;9.57;4.53;;;;;;;16.53;83.97;102353.38;4742064;30;20519;-92
2022/07/11 05:15:38;;;;;;;10.50;3.50;;;;;;;16.47;84.31;102341.03;4742177;30;20028;-92
2022/07/11 05:18:04;;;;;;;10.77;4.18;;;;;;;16.38;84.08;102327.84;4756513;30;20097;-94
2022/07/11 05:20:30;;;;;;;8.52;3.88;;;;;;;16.46;84.26;102347.28;4742122;30;20518;-92
2022/07/11 05:22:56;;;;;;;8.82;3.38;;;;;;;16.40;84.45;102341.22;4738715;30;20104;-92
2022/07/11 05:25:22;;;;;;;7.15;3.15;;;;;;;16.40;84.26;102335.84;4741560;30;20477;-94
2022/07/11 05:27:48;;;;;;;8.55;3.53;;;;;;;16.42;84.23;102340.25;4750106;30;20043;-94
2022/07/11 05:30:13;;;;;;;10.20;3.30;;;;;;;16.44;83.79;102343.75;4742053;30;20055;-93
2022/07/11 05:32:44;;;;;;;11.57;3.58;;;;;;;16.53;83.09;102358.72;4742206;30;20396;-92
2022/07/11 05:35:10;;;;;;;9.13;3.58;;;;;;;16.44;84.03;102348.22;4768284;30;20114;-92
2022/07/11 05:37:39;;;;;;;4.88;3.17;;;;;;;16.46;84.59;102354.44;4738509;30;20197;-92
2022/07/11 05:40:05;;;;;;;7.32;3.25;;;;;;;16.46;84.79;102360.66;4728552;30;20537;-94
2022/07/11 05:42:34;;;;;;;9.73;2.92;;;;;;;16.39;84.29;102348.31;4743558;30;20032;-93
2022/07/11 05:45:02;;;;;;;6.55;2.90;;;;;;;16.42;84.65;102352.72;4747254;30;20373;-92
2022/07/11 05:47:31;;;;;;;8.85;3.25;;;;;;;16.45;85.05;102353.56;4750163;30;20032;-92
2022/07/11 05:49:57;;;;;;;5.50;2.78;;;;;;;16.49;84.33;102355.25;4753996;30;20039;-92
2022/07/11 05:52:26;;;;;;;6.20;2.95;;;;;;;16.48;84.25;102364.16;4741601;30;20047;-94
2022/07/11 05:54:52;;;;;;;7.05;2.60;;;;;;;16.48;84.07;102366.84;4734208;30;20024;-92
2022/07/11 05:57:17;;;;;;;8.80;3.25;;;;;;;16.58;83.64;102372.88;4736087;30;20044;-92
2022/07/11 05:59:45;;;;;;;10.60;3.63;;;;;;;16.43;82.96;102349.16;4736122;30;20024;-92
2022/07/11 06:02:14;;;;;;;5.25;2.50;;;;;;;16.50;82.65;102367.69;4733662;30;20643;-94
2022/07/11 06:04:45;;;;;;;4.63;2.67;;;;;;;16.46;82.43;102351.75;4735835;30;20035;-91
2022/07/11 06:10:15;;;;;;;4.63;2.33;;;;;;;16.56;82.76;102372.03;4739350;30;20497;-93
2022/07/11 06:12:49;;;;;;;6.20;2.67;;;;;;;16.63;82.79;102376.31;4734959;30;20044;-93
2022/07/11 06:15:14;;;;;;;4.63;2.40;;;;;;;16.67;81.63;102380.69;4747473;30;20071;-91
2022/07/11 06:18:02;;;;;;;3.33;2.20;;;;;;;16.68;82.19;102377.09;4741464;30;20069;-93
2022/07/11 06:20:38;;;;;;;4.72;2.15;;;;;;;16.70;81.39;102377.06;4729117;30;20105;-92
2022/07/11 06:23:13;;;;;;;4.85;2.10;;;;;;;16.75;81.22;102384.06;4740790;30;20031;-94
2022/07/11 06:25:42;;;;;;;3.80;2.10;;;;;;;16.81;81.55;102376.84;4754816;30;20043;-92
2022/07/11 06:31:22;;;;;;;4.10;1.88;;;;;;;16.88;80.61;102387.34;4740729;30;20055;-93
2022/07/11 06:33:57;;;;;;;2.67;2.13;;;;;;;16.95;80.93;102390.78;4747182;30;20044;-93
2022/07/11 06:36:29;;;;;;;5.40;2.40;;;;;;;17.01;81.04;102387.06;4768087;30;20035;-93
2022/07/11 06:39:15;;;;;;;3.70;2.35;;;;;;;17.10;80.14;102390.41;4747304;30;20036;-93
2022/07/11 06:41:40;;;;;;;6.47;2.50;;;;;;;17.12;80.00;102385.91;4738081;30;20039;-93
2022/07/11 06:44:21;;;;;;;3.50;2.35;;;;;;;17.14;79.51;102373.34;4743321;30;20055;-92
2022/07/11 06:46:50;;;;;;;5.30;2.42;;;;;;;17.21;78.92;102371.41;4730864;30;20101;-93
2022/07/11 06:49:44;;;;;;;;;;;;;;;;;;;;;
2022/07/11 06:52:23;;;;;;;4.05;2.38;;;;;;;17.39;79.32;102372.75;4742138;30;20474;-93
2022/07/11 06:55:30;;;;;;;4.95;2.33;;;;;;;17.44;78.31;102373.50;4745377;30;20067;-95
2022/07/11 06:58:31;;;;;;;6.68;2.70;;;;;;;17.38;77.37;102371.88;4752018;30;20027;-94
2022/07/11 07:01:12;;;;;;;3.67;2.42;;;;;;;17.32;78.47;102357.75;4720885;30;20032;-92
2022/07/11 07:03:51;;;;;;;4.95;2.45;;;;;;;17.45;78.38;102355.63;4750019;30;20035;-92
2022/07/11 07:06:52;;;;;;;7.13;2.20;;;;;;;17.48;77.95;102352.84;4740754;30;20040;-94
2022/07/11 07:09:31;;;;;;;9.07;2.60;;;;;;;17.45;78.15;102360.97;4739363;30;20501;-94
2022/07/11 07:12:06;;;;;;;4.93;2.40;;;;;;;17.52;78.82;102351.84;4747086;30;20031;-91
2022/07/11 07:14:39;;;;;;;9.60;2.80;;;;;;;17.63;77.67;102353.34;4739332;30;20115;-92
2022/07/11 07:17:12;;;;;;;;;;;;;;;17.84;76.87;102369.75;4742658;30;20047;-93
2022/07/11 07:19:59;;;;;;;;;;;;;;;;;;;;;
2022/07/11 07:22:25;;;;;;;4.65;2.40;;;;;;;17.86;77.22;102340.25;4755143;30;20036;-94
2022/07/11 07:24:54;;;;;;;6.68;2.08;;;;;;;17.99;77.31;102358.59;4741201;30;20089;-94
2022/07/11 07:27:37;;;;;;;4.65;2.30;;;;;;;18.02;77.09;102352.28;4741954;30;20044;-96
2022/07/11 07:30:13;;;;;;;3.28;2.10;;;;;;;18.17;76.19;102369.72;4741066;30;20054;-95
2022/07/11 07:32:44;;;;;;;4.28;2.22;;;;;;;18.16;76.41;102347.41;4726644;30;20097;-94
2022/07/11 07:35:25;;;;;;;4.90;2.00;;;;;;;18.31;76.00;102363.97;4756057;30;20048;-93
2022/07/11 07:37:51;;;;;;;3.17;2.00;;;;;;;18.30;75.62;102355.03;4743864;30;20044;-91
2022/07/11 07:40:16;;;;;;;7.85;2.10;;;;;;;18.44;75.90;102355.47;4724969;30;20130;-93
2022/07/11 07:42:42;;;;;;;5.35;2.20;;;;;;;18.47;75.53;102350.03;4736629;30;20044;-90
2022/07/11 07:45:08;;;;;;;8.07;2.63;;;;;;;18.60;74.51;102373.81;4726287;30;20028;-92
2022/07/11 07:47:34;;;;;;;4.30;2.05;;;;;;;18.68;74.54;102379.78;4730976;30;20050;-89
2022/07/11 07:50:00;;;;;;;8.13;2.05;;;;;;;18.64;74.08;102359.34;4721432;30;20036;-89
2022/07/11 07:52:25;;;;;;;6.57;2.13;;;;;;;18.66;73.63;102363.72;4720890;30;20147;-88
2022/07/11 07:54:51;;;;;;;5.28;2.33;;;;;;;18.74;73.29;102379.59;4740264;30;20429;-89
2022/07/11 07:57:16;;;;;;;3.85;2.25;;;;;;;18.70;74.07;102376.13;4742252;30;20123;-88
2022/07/11 07:59:42;;;;;;;5.85;3.00;;;;;;;18.67;73.41;102378.94;4727532;30;20052;-88
2022/07/11 08:02:07;;;;;;;3.92;2.60;;;;;;;18.56;73.91;102381.03;4741480;30;20501;-88
2022/07/11 08:04:33;;;;;;;6.03;2.17;;;;;;;18.61;74.14;102383.59;4727580;30;20093;-88
2022/07/11 08:06:59;;;;;;;4.47;2.35;;;;;;;18.57;73.82;102377.47;4732544;30;20425;-89
2022/07/11 08:09:25;;;;;;;8.80;2.60;;;;;;;18.62;74.79;102391.59;4742176;30;20075;-89
2022/07/11 08:11:51;;;;;;;4.50;3.00;;;;;;;18.53;73.20;102386.50;4741492;30;20035;-88
2022/07/11 08:14:16;;;;;;;5.85;3.20;;;;;;;18.44;73.76;102381.41;4738568;30;20039;-89
2022/07/11 08:16:42;;;;;;;6.07;2.97;;;;;;;18.34;74.17;102382.63;4736340;30;20084;-89
2022/07/11 08:19:07;;;;;;;5.03;2.92;;;;;;;18.34;75.06;102388.88;4741032;30;20238;-89
2022/07/11 08:21:33;;;;;;;5.70;3.50;;;;;;;18.36;75.33;102388.84;4755793;30;20050;-89
2022/07/11 08:23:59;;;;;;;4.82;3.25;;;;;;;18.38;74.07;102387.00;4755507;30;20043;-89
2022/07/11 08:26:25;;;;;;;10.02;3.97;;;;;;;18.44;75.23;102386.78;4728721;30;20036;-89
2022/07/11 08:28:51;;;;;;;6.13;3.60;;;;;;;18.54;74.60;102388.25;4755424;30;20048;-88
2022/07/11 08:31:17;;;;;;;6.88;3.85;;;;;;;18.67;75.01;102399.53;4741268;30;20052;-88
2022/07/11 08:33:43;;;;;;;7.88;4.20;;;;;;;18.81;74.32;102397.28;4741814;30;20031;-88
2022/07/11 08:36:08;;;;;;;9.95;4.03;;;;;;;18.90;74.26;102397.00;4745181;30;20043;-89
2022/07/11 08:38:34;;;;;;;5.68;3.70;;;;;;;18.98;73.09;102393.19;4747296;30;20047;-87
2022/07/11 08:40:59;;;;;;;10.27;3.90;;;;;;;19.10;72.98;102398.16;4748012;30;20031;-88
2022/07/11 08:43:31;;;;;;;6.70;4.20;;;;;;;19.10;72.62;102401.72;4740954;30;20075;-88
2022/07/11 08:45:58;;;;;;;9.80;4.35;;;;;;;19.16;73.53;102395.25;4732720;30;20135;-89
2022/07/11 08:48:24;;;;;;;7.25;3.90;;;;;;;19.19;72.84;102389.81;4752948;30;20443;-89
2022/07/11 08:50:50;;;;;;;7.22;4.00;;;;;;;19.26;72.61;102394.06;4724020;30;20040;-88
2022/07/11 08:53:16;;;;;;;9.63;4.18;;;;;;;19.31;72.58;102402.84;4752739;30;20036;-88
2022/07/11 08:55:42;;;;;;;7.57;3.97;;;;;;;19.39;72.03;102393.66;4741779;30;20470;-88
2022/07/11 08:58:09;;;;;;;5.68;4.03;;;;;;;19.39;71.85;102381.09;4742275;30;20050;-88
2022/07/11 09:00:35;;;;;;;8.15;4.45;;;;;;;19.37;72.24;102385.63;4752979;30;20555;-89
2022/07/11 09:03:02;;;;;;;7.90;4.28;;;;;;;19.35;71.78;102379.44;4740041;30;20031;-87
2022/07/11 09:05:28;;;;;;;6.07;4.25;;;;;;;19.39;72.21;102394.53;4745829;30;20393;-89
2022/07/11 09:07:54;;;;;;;8.13;3.92;;;;;;;19.39;71.73;102381.09;4734478;30;20541;-88
2022/07/11 09:10:20;;;;;;;6.78;4.10;;;;;;;19.48;72.08;102390.63;4725608;30;20143;-88
2022/07/11 09:13:26;;;;;;;6.13;3.70;;;;;;;19.65;71.91;102385.53;4738435;30;20042;-88
2022/07/11 09:16:01;;;;;;;6.43;4.22;;;;;;;19.80;71.76;102384.13;4728255;30;20040;-88
2022/07/11 09:18:36;;;;;;;9.27;4.07;;;;;;;19.99;70.86;102387.03;4750752;30;20185;-88
2022/07/11 09:26:51;;;;;;;7.55;3.75;;;;;;;20.54;68.15;102365.22;4755058;30;20092;-87
2022/07/11 09:29:21;;;;;;;9.35;4.20;;;;;;;20.74;67.96;102381.47;4729064;30;20040;-88
2022/07/11 09:31:48;;;;;;;8.20;4.38;;;;;;;20.88;67.78;102378.25;4766308;30;20130;-88
2022/07/11 09:34:16;;;;;;;6.55;4.60;;;;;;;20.97;66.23;102379.69;4744272;30;20066;-88
2022/07/11 09:36:43;;;;;;;9.30;4.45;;;;;;;20.93;65.55;102378.94;4740016;30;20126;-88
2022/07/11 09:39:17;;;;;;;7.20;4.35;;;;;;;20.95;66.56;102377.06;4756742;30;20032;-88
2022/07/11 09:41:44;;;;;;;7.22;3.97;;;;;;;20.94;66.88;102377.97;4739023;30;20073;-89
2022/07/11 09:44:12;;;;;;;7.13;3.50;;;;;;;20.90;64.74;102381.75;4730679;30;20028;-89
2022/07/11 09:46:39;;;;;;;4.00;2.80;;;;;;;20.94;64.81;102380.66;4734854;30;20105;-88
2022/07/11 09:49:06;;;;;;;7.32;3.10;;;;;;;20.92;64.67;102379.88;4746850;30;20114;-88
2022/07/11 09:51:33;;;;;;;5.22;3.25;;;;;;;20.84;64.40;102379.31;4721913;30;20134;-87
2022/07/11 09:53:59;;;;;;;5.57;2.90;;;;;;;20.87;64.76;102381.00;4735974;30;20038;-89
2022/07/11 09:56:39;;;;;;;3.67;2.65;;;;;;;20.89;65.12;102388.06;4751161;30;20095;-88
2022/07/11 09:59:06;;;;;;;3.65;2.78;;;;;;;20.89;65.12;102382.69;4750716;30;20039;-88
2022/07/11 10:01:32;;;;;;;4.28;2.97;;;;;;;20.90;65.28;102375.50;4721467;30;20067;-88
2022/07/11 10:03:58;;;;;;;3.55;2.40;;;;;;;20.90;64.33;102383.59;4750126;30;20462;-90
2022/07/11 10:06:25;;;;;;;4.95;2.45;;;;;;;20.93;64.88;102388.84;4749446;30;20032;-88
2022/07/11 10:08:51;;;;;;;4.63;2.72;;;;;;;20.95;64.17;102381.56;4749700;30;20044;-88
2022/07/11 10:11:17;;;;;;;4.05;2.72;;;;;;;20.96;64.44;102381.50;4735417;30;20031;-88
2022/07/11 10:13:43;;;;;;;4.20;2.50;;;;;;;21.02;64.81;102381.25;4720538;30;20044;-88
2022/07/11 10:16:23;;;;;;;4.03;2.60;;;;;;;21.11;64.49;102393.44;4764021;30;20032;-88
2022/07/11 10:19:05;;;;;;;5.63;2.60;;;;;;;21.08;64.82;102388.19;4749276;30;20067;-89
2022/07/11 10:21:58;;;;;;;3.28;2.05;;;;;;;21.18;65.38;102392.25;4734811;30;20305;-89
2022/07/11 10:24:37;;;;;;;4.97;2.58;;;;;;;21.13;64.29;102388.00;4748368;30;20040;-89
2022/07/11 10:27:26;;;;;;;4.18;3.00;;;;;;;21.16;64.31;102394.13;4749719;30;20093;-89
2022/07/11 10:29:53;;;;;;;4.40;2.72;;;;;;;21.13;64.02;102396.97;4749717;30;20048;-88
2022/07/11 10:32:19;;;;;;;5.32;3.00;;;;;;;21.12;63.20;102403.31;4735302;30;20028;-90
2022/07/11 10:34:47;;;;;;;6.93;2.60;;;;;;;21.09;63.71;102405.22;4734526;30;20122;-88
2022/07/11 10:37:13;;;;;;;5.20;2.70;;;;;;;20.97;64.66;102396.72;4734819;30;20062;-88
2022/07/11 10:39:46;;;;;;;2.05;1.77;;;;;;;21.05;65.04;102402.66;4720115;30;20058;-88
2022/07/11 10:42:20;;;;;;;4.03;2.08;;;;;;;21.07;64.26;102399.03;4717656;30;20035;-89
2022/07/11 10:44:54;;;;;;;8.38;2.13;;;;;;;21.23;64.40;102408.22;4763511;30;20140;-88
2022/07/11 10:47:40;;;;;;;2.60;1.80;;;;;;;21.29;64.52;102407.09;4734204;30;20046;-88
2022/07/11 10:50:18;;;;;;;4.18;1.70;;;;;;;21.26;63.22;102397.31;4749089;30;20089;-89
2022/07/11 10:52:48;;;;;;;1.38;1.27;;;;;;;21.37;62.48;102397.75;4765407;30;20043;-88
2022/07/11 10:55:32;;;;;;;1.80;1.10;;;;;;;21.46;62.63;102401.88;4748933;30;20439;-88
2022/07/11 10:58:22;;;;;;;1.80;1.13;;;;;;;21.46;62.26;102401.88;4748927;30;20062;-88
2022/07/11 11:01:14;;;;;;;1.10;1.00;;;;;;;21.52;62.74;102401.66;4734955;30;20043;-87
2022/07/11 11:03:41;;;;;;;1.23;0.77;;;;;;;21.62;61.52;102402.13;4733983;30;20373;-87
2022/07/11 11:06:07;;;;;;;1.73;1.17;;;;;;;21.76;60.51;102401.50;4748605;30;20036;-88
2022/07/11 11:08:35;;;;;;;1.30;1.10;;;;;;;21.81;61.33;102400.38;4748774;30;20072;-89
2022/07/11 11:11:06;;;;;;;1.75;1.08;;;;;;;21.76;60.91;102399.72;4749579;30;20122;-88
2022/07/11 11:13:37;;;;;;;2.50;1.48;;;;;;;21.66;60.22;102407.31;4750045;30;20058;-89
2022/07/11 11:16:18;;;;;;;1.90;1.10;;;;;;;21.58;60.95;102404.06;4748574;30;20174;-88
2022/07/11 11:18:50;;;;;;;2.58;1.83;;;;;;;21.30;61.18;102406.16;4748601;30;20080;-89
2022/07/11 11:21:18;;;;;;;2.65;1.80;;;;;;;21.35;61.52;102396.06;4721750;30;20497;-87
2022/07/11 11:23:59;;;;;;;3.00;1.42;;;;;;;21.47;61.55;102407.22;4737465;30;20039;-88
2022/07/11 11:26:50;;;;;;;2.58;1.42;;;;;;;21.22;61.06;102404.66;4753041;30;20088;-88
2022/07/11 11:29:27;;;;;;;;;;;;;;;21.36;61.90;102409.47;4752600;30;20043;-88
2022/07/11 11:31:56;;;;;;;1.60;1.50;;;;;;;21.39;61.83;102411.19;4768241;30;19924;-89
2022/07/11 11:34:21;;;;;;;2.60;1.90;;;;;;;21.52;62.01;102398.94;4752735;30;20027;-88
2022/07/11 11:36:55;;;;;;;2.30;1.63;;;;;;;21.68;61.76;102407.22;4744788;30;20058;-89
2022/07/11 11:39:33;;;;;;;1.85;1.50;;;;;;;21.80;61.42;102406.69;4769136;30;20494;-88
2022/07/11 11:42:07;;;;;;;2.03;1.75;;;;;;;21.88;60.97;102404.56;4750792;30;20051;-88
2022/07/11 11:44:34;;;;;;;1.98;1.58;;;;;;;22.02;61.23;102398.53;4739244;30;20040;-88
2022/07/11 11:47:00;;;;;;;5.22;1.80;;;;;;;22.14;60.75;102391.69;4750286;30;20046;-87
2022/07/11 11:49:26;;;;;;;2.78;1.98;;;;;;;22.22;60.56;102389.53;4740075;30;20044;-88